createdAt,value
2022-08-17T00:03:55.508Z,98070.93
2022-08-17T00:14:08.484Z,98067.63
2022-08-17T00:24:16.211Z,98069.69
2022-08-17T00:34:25.676Z,98071.58
2022-08-17T00:44:35.183Z,98065.00
2022-08-17T00:54:46.011Z,98070.26
2022-08-17T01:04:56.083Z,98061.73
2022-08-17T01:15:03.380Z,98060.02
2022-08-17T01:25:12.748Z,98059.53
2022-08-17T01:35:18.384Z,98061.38
2022-08-17T01:45:22.658Z,98068.92
2022-08-17T01:55:27.763Z,98075.24
2022-08-17T02:05:33.173Z,98083.04
2022-08-17T02:15:41.730Z,98082.91
2022-08-17T02:25:48.080Z,98073.02
2022-08-17T02:35:54.996Z,98074.80
2022-08-17T02:46:02.040Z,98084.87
2022-08-17T02:56:09.639Z,98084.26
2022-08-17T03:06:16.830Z,98080.16
2022-08-17T03:16:23.798Z,98088.30
2022-08-17T03:26:32.510Z,98096.81
2022-08-17T03:36:39.519Z,98102.00
2022-08-17T03:47:04.184Z,98108.09
2022-08-17T03:57:13.235Z,98119.73
2022-08-17T04:07:19.398Z,98120.58
2022-08-17T04:17:23.477Z,98119.70
2022-08-17T04:27:30.724Z,98121.32
2022-08-17T04:37:37.669Z,98115.90
2022-08-17T04:47:44.706Z,98129.16
2022-08-17T04:57:50.934Z,98137.39
2022-08-17T05:07:59.494Z,98141.37
2022-08-17T05:18:05.556Z,98140.11
2022-08-17T05:28:13.579Z,98142.45
2022-08-17T05:38:23.201Z,98142.69
2022-08-17T05:48:39.059Z,98153.77
2022-08-17T05:58:49.034Z,98159.20
2022-08-17T06:08:55.250Z,98159.58
2022-08-17T06:19:00.009Z,98157.11
2022-08-17T06:29:18.564Z,98154.64
2022-08-17T06:39:36.228Z,98158.35
2022-08-17T06:49:47.866Z,98162.20
2022-08-17T07:00:00.388Z,98166.54
2022-08-17T07:10:10.522Z,98174.23
2022-08-17T07:20:21.531Z,98178.71
2022-08-17T07:30:31.283Z,98186.23
2022-08-17T07:41:00.280Z,98180.29
2022-08-17T07:51:16.192Z,98186.89
2022-08-17T08:01:23.352Z,98195.94
2022-08-17T08:11:41.269Z,98201.02
2022-08-17T08:22:00.159Z,98203.27
2022-08-17T08:32:09.762Z,98206.63
2022-08-17T08:42:19.416Z,98212.52
2022-08-17T08:52:30.946Z,98210.29
2022-08-17T09:03:04.221Z,98208.61
2022-08-17T09:13:20.276Z,98212.92
2022-08-17T09:23:27.160Z,98203.83
2022-08-17T09:33:39.236Z,98203.59
2022-08-17T09:43:50.762Z,98214.44
2022-08-17T09:54:14.756Z,98213.73
2022-08-17T10:04:32.812Z,98212.65
2022-08-17T10:14:55.089Z,98204.35
2022-08-17T10:25:24.816Z,98198.65
2022-08-17T10:35:40.757Z,98203.91
2022-08-17T10:45:48.443Z,98205.52
2022-08-17T10:56:21.885Z,98207.75
2022-08-17T11:06:36.377Z,98204.74
2022-08-17T11:16:43.220Z,98209.17
2022-08-17T11:27:02.431Z,98198.73
2022-08-17T11:37:25.467Z,98199.80
2022-08-17T11:48:08.938Z,98206.33
2022-08-17T11:58:37.472Z,98203.77
2022-08-17T12:08:50.745Z,98196.95
2022-08-17T12:19:04.073Z,98182.32
2022-08-17T12:29:18.448Z,98177.04
